sensor_id;sensor_type;location;lat;lon;timestamp;pressure;altitude;pressure_sealevel;temperature;humidity
36138;BME280;22194;50.046;21.954;2022-10-31T00:01:38;99340.84;;;10.33;75.38
36138;BME280;22194;50.046;21.954;2022-10-31T00:04:07;99338.27;;;10.32;75.45
36138;BME280;22194;50.046;21.954;2022-10-31T00:06:35;99343.13;;;10.30;75.56
36138;BME280;22194;50.046;21.954;2022-10-31T00:09:05;99343.03;;;10.29;75.54
36138;BME280;22194;50.046;21.954;2022-10-31T00:11:35;99340.02;;;10.29;75.52
36138;BME280;22194;50.046;21.954;2022-10-31T00:14:04;99334.48;;;10.27;75.61
36138;BME280;22194;50.046;21.954;2022-10-31T00:16:32;99333.06;;;10.24;75.65
36138;BME280;22194;50.046;21.954;2022-10-31T00:19:05;99331.95;;;10.22;75.83
36138;BME280;22194;50.046;21.954;2022-10-31T00:21:36;99332.52;;;10.22;76.08
36138;BME280;22194;50.046;21.954;2022-10-31T00:24:05;99333.67;;;10.23;76.00
36138;BME280;22194;50.046;21.954;2022-10-31T00:26:35;99335.73;;;10.24;75.90
36138;BME280;22194;50.046;21.954;2022-10-31T00:29:04;99334.92;;;10.26;76.03
36138;BME280;22194;50.046;21.954;2022-10-31T00:31:33;99337.96;;;10.28;76.16
36138;BME280;22194;50.046;21.954;2022-10-31T00:34:01;99341.31;;;10.31;76.21
36138;BME280;22194;50.046;21.954;2022-10-31T00:36:30;99341.72;;;10.33;76.20
36138;BME280;22194;50.046;21.954;2022-10-31T00:39:00;99343.20;;;10.35;76.32
36138;BME280;22194;50.046;21.954;2022-10-31T00:41:28;99341.81;;;10.37;76.42
36138;BME280;22194;50.046;21.954;2022-10-31T00:43:58;99340.85;;;10.38;76.28
36138;BME280;22194;50.046;21.954;2022-10-31T00:46:26;99341.70;;;10.39;76.17
36138;BME280;22194;50.046;21.954;2022-10-31T00:48:54;99343.30;;;10.39;76.25
36138;BME280;22194;50.046;21.954;2022-10-31T00:51:22;99341.14;;;10.39;76.25
36138;BME280;22194;50.046;21.954;2022-10-31T00:53:51;99341.80;;;10.40;76.37
36138;BME280;22194;50.046;21.954;2022-10-31T00:56:18;99340.67;;;10.41;76.43
36138;BME280;22194;50.046;21.954;2022-10-31T00:58:46;99341.33;;;10.41;76.44
36138;BME280;22194;50.046;21.954;2022-10-31T01:01:14;99341.27;;;10.42;76.43
36138;BME280;22194;50.046;21.954;2022-10-31T01:03:44;99342.42;;;10.43;76.48
36138;BME280;22194;50.046;21.954;2022-10-31T01:06:14;99340.42;;;10.45;76.47
36138;BME280;22194;50.046;21.954;2022-10-31T01:08:44;99339.23;;;10.44;76.35
36138;BME280;22194;50.046;21.954;2022-10-31T01:11:18;99338.59;;;10.43;76.51
36138;BME280;22194;50.046;21.954;2022-10-31T01:13:52;99335.93;;;10.43;76.56
36138;BME280;22194;50.046;21.954;2022-10-31T01:16:25;99335.11;;;10.45;76.66
36138;BME280;22194;50.046;21.954;2022-10-31T01:18:53;99331.98;;;10.46;76.60
36138;BME280;22194;50.046;21.954;2022-10-31T01:21:28;99334.90;;;10.48;76.55
36138;BME280;22194;50.046;21.954;2022-10-31T01:23:57;99331.63;;;10.49;76.70
36138;BME280;22194;50.046;21.954;2022-10-31T01:26:31;99332.64;;;10.50;76.66
36138;BME280;22194;50.046;21.954;2022-10-31T01:29:05;99335.02;;;10.51;76.66
36138;BME280;22194;50.046;21.954;2022-10-31T01:31:38;99330.86;;;10.52;76.65
36138;BME280;22194;50.046;21.954;2022-10-31T01:34:09;99327.31;;;10.52;76.65
36138;BME280;22194;50.046;21.954;2022-10-31T01:36:40;99323.73;;;10.53;76.67
36138;BME280;22194;50.046;21.954;2022-10-31T01:39:13;99320.71;;;10.53;76.66
36138;BME280;22194;50.046;21.954;2022-10-31T01:41:47;99323.15;;;10.54;76.71
36138;BME280;22194;50.046;21.954;2022-10-31T01:46:45;99323.38;;;10.53;76.73
36138;BME280;22194;50.046;21.954;2022-10-31T01:49:56;99322.46;;;10.53;76.74
36138;BME280;22194;50.046;21.954;2022-10-31T01:52:33;99324.15;;;10.55;76.72
36138;BME280;22194;50.046;21.954;2022-10-31T01:57:44;99326.99;;;10.54;76.78
36138;BME280;22194;50.046;21.954;2022-10-31T02:00:15;99327.85;;;10.55;76.81
36138;BME280;22194;50.046;21.954;2022-10-31T02:02:44;99324.68;;;10.55;76.73
36138;BME280;22194;50.046;21.954;2022-10-31T02:05:16;99323.23;;;10.55;76.79
36138;BME280;22194;50.046;21.954;2022-10-31T02:08:03;99324.86;;;10.54;76.70
36138;BME280;22194;50.046;21.954;2022-10-31T02:10:35;99324.95;;;10.53;76.78
36138;BME280;22194;50.046;21.954;2022-10-31T02:13:06;99323.38;;;10.53;76.86
36138;BME280;22194;50.046;21.954;2022-10-31T02:15:36;99324.73;;;10.54;76.86
36138;BME280;22194;50.046;21.954;2022-10-31T02:18:07;99328.30;;;10.54;76.80
36138;BME280;22194;50.046;21.954;2022-10-31T02:20:43;99326.65;;;10.54;76.79
36138;BME280;22194;50.046;21.954;2022-10-31T02:26:41;99328.31;;;10.53;76.88
36138;BME280;22194;50.046;21.954;2022-10-31T02:32:33;99331.77;;;10.52;76.96
36138;BME280;22194;50.046;21.954;2022-10-31T02:35:24;99329.05;;;10.50;76.83
36138;BME280;22194;50.046;21.954;2022-10-31T02:46:34;99336.46;;;10.18;76.65
36138;BME280;22194;50.046;21.954;2022-10-31T02:49:14;99340.48;;;10.08;76.60
36138;BME280;22194;50.046;21.954;2022-10-31T02:51:49;99335.15;;;10.03;76.78
36138;BME280;22194;50.046;21.954;2022-10-31T02:54:27;99332.74;;;10.00;76.77
36138;BME280;22194;50.046;21.954;2022-10-31T02:57:02;99333.55;;;9.98;76.86
36138;BME280;22194;50.046;21.954;2022-10-31T02:59:35;99332.96;;;9.99;76.87
36138;BME280;22194;50.046;21.954;2022-10-31T03:02:24;99336.59;;;9.98;76.90
36138;BME280;22194;50.046;21.954;2022-10-31T03:05:15;99342.73;;;9.96;76.90
36138;BME280;22194;50.046;21.954;2022-10-31T03:08:15;99347.67;;;9.93;76.94
36138;BME280;22194;50.046;21.954;2022-10-31T03:10:58;99350.96;;;9.92;77.01
36138;BME280;22194;50.046;21.954;2022-10-31T03:13:54;99357.32;;;9.92;77.08
36138;BME280;22194;50.046;21.954;2022-10-31T03:19:06;99359.19;;;9.96;77.12
36138;BME280;22194;50.046;21.954;2022-10-31T03:24:20;99358.17;;;9.98;77.14
36138;BME280;22194;50.046;21.954;2022-10-31T03:26:53;99358.36;;;9.98;77.20
36138;BME280;22194;50.046;21.954;2022-10-31T03:29:27;99356.00;;;9.99;77.18
36138;BME280;22194;50.046;21.954;2022-10-31T03:31:59;99355.84;;;9.98;77.22
36138;BME280;22194;50.046;21.954;2022-10-31T03:34:29;99354.25;;;9.98;77.17
36138;BME280;22194;50.046;21.954;2022-10-31T03:37:02;99357.36;;;9.97;77.30
36138;BME280;22194;50.046;21.954;2022-10-31T03:39:34;99359.56;;;9.98;77.28
36138;BME280;22194;50.046;21.954;2022-10-31T03:42:14;99363.71;;;10.00;77.26
36138;BME280;22194;50.046;21.954;2022-10-31T03:44:50;99361.91;;;10.01;77.27
36138;BME280;22194;50.046;21.954;2022-10-31T03:47:23;99367.33;;;10.02;77.24
36138;BME280;22194;50.046;21.954;2022-10-31T03:49:54;99363.38;;;10.00;77.24
36138;BME280;22194;50.046;21.954;2022-10-31T03:52:49;99366.86;;;10.01;77.19
36138;BME280;22194;50.046;21.954;2022-10-31T03:55:31;99367.80;;;10.00;77.24
36138;BME280;22194;50.046;21.954;2022-10-31T03:58:25;99369.41;;;9.97;77.17
36138;BME280;22194;50.046;21.954;2022-10-31T04:00:57;99376.55;;;9.94;77.30
36138;BME280;22194;50.046;21.954;2022-10-31T04:03:32;99377.46;;;9.93;77.23
36138;BME280;22194;50.046;21.954;2022-10-31T04:06:06;99378.04;;;9.93;77.26
36138;BME280;22194;50.046;21.954;2022-10-31T04:08:42;99374.26;;;9.93;77.29
36138;BME280;22194;50.046;21.954;2022-10-31T04:11:15;99373.34;;;9.91;77.21
36138;BME280;22194;50.046;21.954;2022-10-31T04:13:49;99372.41;;;9.89;77.17
36138;BME280;22194;50.046;21.954;2022-10-31T04:16:19;99368.27;;;9.87;77.26
36138;BME280;22194;50.046;21.954;2022-10-31T04:18:48;99370.81;;;9.86;77.34
36138;BME280;22194;50.046;21.954;2022-10-31T04:21:16;99369.70;;;9.84;77.23
36138;BME280;22194;50.046;21.954;2022-10-31T04:23:47;99375.36;;;9.81;77.21
36138;BME280;22194;50.046;21.954;2022-10-31T04:26:14;99375.70;;;9.79;77.28
36138;BME280;22194;50.046;21.954;2022-10-31T04:28:42;99375.55;;;9.76;77.23
36138;BME280;22194;50.046;21.954;2022-10-31T04:31:13;99377.48;;;9.74;77.23
36138;BME280;22194;50.046;21.954;2022-10-31T04:33:41;99378.30;;;9.72;77.26
36138;BME280;22194;50.046;21.954;2022-10-31T04:36:10;99376.40;;;9.71;77.30
36138;BME280;22194;50.046;21.954;2022-10-31T04:38:38;99378.46;;;9.69;77.27
36138;BME280;22194;50.046;21.954;2022-10-31T04:41:06;99380.27;;;9.68;77.36
36138;BME280;22194;50.046;21.954;2022-10-31T04:43:34;99376.40;;;9.68;77.44
36138;BME280;22194;50.046;21.954;2022-10-31T04:46:03;99375.73;;;9.67;77.43
36138;BME280;22194;50.046;21.954;2022-10-31T04:48:30;99383.65;;;9.65;77.37
36138;BME280;22194;50.046;21.954;2022-10-31T04:51:03;99378.77;;;9.64;77.36
36138;BME280;22194;50.046;21.954;2022-10-31T04:53:31;99379.88;;;9.63;77.46
36138;BME280;22194;50.046;21.954;2022-10-31T04:55:59;99379.06;;;9.62;77.47
36138;BME280;22194;50.046;21.954;2022-10-31T04:58:29;99381.45;;;9.61;77.34
36138;BME280;22194;50.046;21.954;2022-10-31T05:00:57;99380.20;;;9.59;77.42
36138;BME280;22194;50.046;21.954;2022-10-31T05:03:25;99380.67;;;9.57;77.47
36138;BME280;22194;50.046;21.954;2022-10-31T05:05:52;99381.45;;;9.56;77.47
36138;BME280;22194;50.046;21.954;2022-10-31T05:08:24;99382.71;;;9.55;77.54
36138;BME280;22194;50.046;21.954;2022-10-31T05:10:52;99382.46;;;9.53;77.59
36138;BME280;22194;50.046;21.954;2022-10-31T05:13:24;99389.63;;;9.52;77.56
36138;BME280;22194;50.046;21.954;2022-10-31T05:15:52;99389.42;;;9.49;77.53
36138;BME280;22194;50.046;21.954;2022-10-31T05:18:21;99392.77;;;9.47;77.32
36138;BME280;22194;50.046;21.954;2022-10-31T05:20:49;99395.07;;;9.44;77.34
36138;BME280;22194;50.046;21.954;2022-10-31T05:23:17;99400.09;;;9.40;77.37
36138;BME280;22194;50.046;21.954;2022-10-31T05:25:45;99406.09;;;9.38;77.47
36138;BME280;22194;50.046;21.954;2022-10-31T05:28:13;99410.30;;;9.36;77.43
36138;BME280;22194;50.046;21.954;2022-10-31T05:30:41;99409.45;;;9.35;77.53
36138;BME280;22194;50.046;21.954;2022-10-31T05:33:09;99411.98;;;9.34;77.53
36138;BME280;22194;50.046;21.954;2022-10-31T05:35:36;99412.17;;;9.34;77.56
36138;BME280;22194;50.046;21.954;2022-10-31T05:38:06;99413.52;;;9.35;77.72
36138;BME280;22194;50.046;21.954;2022-10-31T05:40:34;99416.29;;;9.36;77.75
36138;BME280;22194;50.046;21.954;2022-10-31T05:43:02;99413.46;;;9.39;77.78
36138;BME280;22194;50.046;21.954;2022-10-31T05:45:31;99415.55;;;9.42;77.77
36138;BME280;22194;50.046;21.954;2022-10-31T05:48:02;99411.60;;;9.46;77.88
36138;BME280;22194;50.046;21.954;2022-10-31T05:50:32;99413.29;;;9.50;77.98
36138;BME280;22194;50.046;21.954;2022-10-31T05:53:04;99415.66;;;9.55;77.98
36138;BME280;22194;50.046;21.954;2022-10-31T05:55:34;99420.64;;;9.60;77.97
36138;BME280;22194;50.046;21.954;2022-10-31T05:58:01;99422.52;;;9.64;78.01
36138;BME280;22194;50.046;21.954;2022-10-31T06:00:33;99422.61;;;9.68;77.90
36138;BME280;22194;50.046;21.954;2022-10-31T06:03:05;99424.32;;;9.72;77.96
36138;BME280;22194;50.046;21.954;2022-10-31T06:05:36;99429.03;;;9.76;77.96
36138;BME280;22194;50.046;21.954;2022-10-31T06:08:05;99430.20;;;9.80;77.93
36138;BME280;22194;50.046;21.954;2022-10-31T06:10:33;99433.83;;;9.84;77.90
36138;BME280;22194;50.046;21.954;2022-10-31T06:13:01;99433.58;;;9.88;77.94
36138;BME280;22194;50.046;21.954;2022-10-31T06:15:29;99434.23;;;9.92;77.90
36138;BME280;22194;50.046;21.954;2022-10-31T06:17:59;99432.02;;;9.96;77.90
36138;BME280;22194;50.046;21.954;2022-10-31T06:20:29;99433.38;;;9.99;78.00
36138;BME280;22194;50.046;21.954;2022-10-31T06:22:57;99432.67;;;10.05;78.00
36138;BME280;22194;50.046;21.954;2022-10-31T06:25:28;99432.96;;;10.09;78.02
36138;BME280;22194;50.046;21.954;2022-10-31T06:27:56;99434.11;;;10.13;78.02
36138;BME280;22194;50.046;21.954;2022-10-31T06:30:27;99441.03;;;10.18;78.00
36138;BME280;22194;50.046;21.954;2022-10-31T06:32:54;99437.75;;;10.22;78.04
36138;BME280;22194;50.046;21.954;2022-10-31T06:35:32;99441.67;;;10.27;78.06
36138;BME280;22194;50.046;21.954;2022-10-31T06:38:02;99441.96;;;10.32;78.01
36138;BME280;22194;50.046;21.954;2022-10-31T06:40:31;99444.52;;;10.36;78.05
36138;BME280;22194;50.046;21.954;2022-10-31T06:43:01;99443.94;;;10.39;78.04
36138;BME280;22194;50.046;21.954;2022-10-31T06:45:29;99440.50;;;10.43;78.10
36138;BME280;22194;50.046;21.954;2022-10-31T06:47:57;99442.90;;;10.47;78.01
36138;BME280;22194;50.046;21.954;2022-10-31T06:50:48;99441.85;;;10.53;78.10
36138;BME280;22194;50.046;21.954;2022-10-31T06:53:16;99443.73;;;10.56;78.08
36138;BME280;22194;50.046;21.954;2022-10-31T06:55:46;99443.05;;;10.61;78.02
36138;BME280;22194;50.046;21.954;2022-10-31T06:58:15;99441.70;;;10.66;78.05
36138;BME280;22194;50.046;21.954;2022-10-31T07:00:43;99446.39;;;10.70;78.06
36138;BME280;22194;50.046;21.954;2022-10-31T07:03:13;99442.74;;;10.74;77.93
36138;BME280;22194;50.046;21.954;2022-10-31T07:05:43;99444.91;;;10.79;78.12
36138;BME280;22194;50.046;21.954;2022-10-31T07:08:13;99446.48;;;10.84;78.12
36138;BME280;22194;50.046;21.954;2022-10-31T07:10:43;99442.48;;;10.89;78.03
36138;BME280;22194;50.046;21.954;2022-10-31T07:13:18;99445.85;;;10.94;78.02
36138;BME280;22194;50.046;21.954;2022-10-31T07:15:50;99448.19;;;10.98;77.98
36138;BME280;22194;50.046;21.954;2022-10-31T07:18:21;99448.92;;;11.04;77.98
36138;BME280;22194;50.046;21.954;2022-10-31T07:20:49;99451.19;;;11.09;78.08
36138;BME280;22194;50.046;21.954;2022-10-31T07:23:16;99457.39;;;11.15;78.11
36138;BME280;22194;50.046;21.954;2022-10-31T07:25:45;99459.68;;;11.20;77.99
36138;BME280;22194;50.046;21.954;2022-10-31T07:28:13;99459.61;;;11.23;77.97
36138;BME280;22194;50.046;21.954;2022-10-31T07:30:42;99460.40;;;11.27;77.99
36138;BME280;22194;50.046;21.954;2022-10-31T07:33:10;99459.40;;;11.31;78.06
36138;BME280;22194;50.046;21.954;2022-10-31T07:35:38;99463.16;;;11.37;78.14
36138;BME280;22194;50.046;21.954;2022-10-31T07:38:08;99468.66;;;11.42;78.06
36138;BME280;22194;50.046;21.954;2022-10-31T07:40:39;99469.26;;;11.46;78.02
36138;BME280;22194;50.046;21.954;2022-10-31T07:43:11;99470.73;;;11.48;77.90
36138;BME280;22194;50.046;21.954;2022-10-31T07:45:42;99470.23;;;11.53;78.02
36138;BME280;22194;50.046;21.954;2022-10-31T07:48:12;99475.04;;;11.57;77.93
36138;BME280;22194;50.046;21.954;2022-10-31T07:50:41;99469.07;;;11.59;77.89
36138;BME280;22194;50.046;21.954;2022-10-31T07:53:10;99469.20;;;11.62;77.94
36138;BME280;22194;50.046;21.954;2022-10-31T07:55:39;99460.73;;;11.66;78.00
36138;BME280;22194;50.046;21.954;2022-10-31T07:58:16;99463.58;;;11.71;78.17
36138;BME280;22194;50.046;21.954;2022-10-31T08:00:46;99459.02;;;11.75;78.03
36138;BME280;22194;50.046;21.954;2022-10-31T08:03:17;99464.08;;;11.77;78.00
36138;BME280;22194;50.046;21.954;2022-10-31T08:05:46;99463.25;;;11.81;77.90
36138;BME280;22194;50.046;21.954;2022-10-31T08:08:16;99465.07;;;11.85;77.94
36138;BME280;22194;50.046;21.954;2022-10-31T08:10:45;99461.44;;;11.89;77.98
36138;BME280;22194;50.046;21.954;2022-10-31T08:13:15;99464.76;;;11.95;77.95
36138;BME280;22194;50.046;21.954;2022-10-31T08:15:42;99468.02;;;12.02;78.03
36138;BME280;22194;50.046;21.954;2022-10-31T08:18:16;99473.59;;;12.08;77.97
36138;BME280;22194;50.046;21.954;2022-10-31T08:20:45;99469.14;;;12.16;78.08
36138;BME280;22194;50.046;21.954;2022-10-31T08:23:14;99471.35;;;12.25;78.02
36138;BME280;22194;50.046;21.954;2022-10-31T08:25:44;99473.11;;;12.32;77.99
36138;BME280;22194;50.046;21.954;2022-10-31T08:28:16;99471.96;;;12.41;77.99
36138;BME280;22194;50.046;21.954;2022-10-31T08:30:44;99474.31;;;12.55;78.03
36138;BME280;22194;50.046;21.954;2022-10-31T08:33:17;99480.73;;;12.76;77.95
36138;BME280;22194;50.046;21.954;2022-10-31T08:35:45;99485.15;;;13.00;78.07
36138;BME280;22194;50.046;21.954;2022-10-31T08:38:13;99485.34;;;13.26;77.92
36138;BME280;22194;50.046;21.954;2022-10-31T08:40:43;99487.05;;;13.53;77.83
36138;BME280;22194;50.046;21.954;2022-10-31T08:43:18;99490.51;;;13.81;77.78
36138;BME280;22194;50.046;21.954;2022-10-31T08:45:49;99488.20;;;14.08;77.78
36138;BME280;22194;50.046;21.954;2022-10-31T08:48:17;99483.91;;;14.35;77.66
36138;BME280;22194;50.046;21.954;2022-10-31T08:50:48;99484.95;;;14.64;77.60
36138;BME280;22194;50.046;21.954;2022-10-31T08:53:18;99477.13;;;14.94;77.50
36138;BME280;22194;50.046;21.954;2022-10-31T08:55:48;99474.15;;;15.25;77.27
36138;BME280;22194;50.046;21.954;2022-10-31T08:58:18;99476.23;;;15.57;77.36
36138;BME280;22194;50.046;21.954;2022-10-31T09:00:50;99480.07;;;15.91;77.17
36138;BME280;22194;50.046;21.954;2022-10-31T09:03:25;99476.55;;;16.27;77.35
36138;BME280;22194;50.046;21.954;2022-10-31T09:06:00;99479.22;;;16.69;77.12
36138;BME280;22194;50.046;21.954;2022-10-31T09:08:31;99476.90;;;17.14;76.89
36138;BME280;22194;50.046;21.954;2022-10-31T09:10:59;99471.00;;;17.58;76.52
36138;BME280;22194;50.046;21.954;2022-10-31T09:13:27;99473.19;;;18.01;76.10
36138;BME280;22194;50.046;21.954;2022-10-31T09:15:57;99473.66;;;18.39;75.96
36138;BME280;22194;50.046;21.954;2022-10-31T09:18:28;99469.72;;;18.71;75.58
36138;BME280;22194;50.046;21.954;2022-10-31T09:20:59;99465.20;;;18.95;75.55
36138;BME280;22194;50.046;21.954;2022-10-31T09:23:27;99462.63;;;19.03;75.48
36138;BME280;22194;50.046;21.954;2022-10-31T09:26:00;99463.63;;;19.06;75.04
36138;BME280;22194;50.046;21.954;2022-10-31T09:28:27;99459.39;;;19.10;75.31
36138;BME280;22194;50.046;21.954;2022-10-31T09:30:55;99462.39;;;19.14;75.15
36138;BME280;22194;50.046;21.954;2022-10-31T09:33:23;99465.03;;;19.18;75.11
36138;BME280;22194;50.046;21.954;2022-10-31T09:35:51;99467.03;;;19.25;74.96
36138;BME280;22194;50.046;21.954;2022-10-31T09:38:21;99466.03;;;19.26;73.95
36138;BME280;22194;50.046;21.954;2022-10-31T09:43:52;99465.86;;;19.21;74.27
36138;BME280;22194;50.046;21.954;2022-10-31T09:49:42;99465.27;;;19.26;73.90
36138;BME280;22194;50.046;21.954;2022-10-31T09:52:21;99472.92;;;19.32;73.81
36138;BME280;22194;50.046;21.954;2022-10-31T09:55:03;99471.85;;;19.39;73.58
36138;BME280;22194;50.046;21.954;2022-10-31T09:57:35;99468.00;;;19.44;73.54
36138;BME280;22194;50.046;21.954;2022-10-31T10:00:06;99471.23;;;19.49;73.57
36138;BME280;22194;50.046;21.954;2022-10-31T10:02:51;99469.73;;;19.57;73.46
36138;BME280;22194;50.046;21.954;2022-10-31T10:05:37;99470.67;;;19.70;73.43
36138;BME280;22194;50.046;21.954;2022-10-31T10:08:18;99470.34;;;19.80;73.12
36138;BME280;22194;50.046;21.954;2022-10-31T10:22:50;99470.38;;;20.04;72.31
36138;BME280;22194;50.046;21.954;2022-10-31T10:25:33;99466.73;;;20.06;72.40
36138;BME280;22194;50.046;21.954;2022-10-31T10:33:38;99465.80;;;20.19;72.24
36138;BME280;22194;50.046;21.954;2022-10-31T10:36:17;99467.58;;;20.15;71.51
36138;BME280;22194;50.046;21.954;2022-10-31T10:38:58;99466.30;;;20.17;71.46
36138;BME280;22194;50.046;21.954;2022-10-31T10:41:32;99465.71;;;20.24;71.40
36138;BME280;22194;50.046;21.954;2022-10-31T10:44:07;99463.22;;;20.28;71.34
36138;BME280;22194;50.046;21.954;2022-10-31T10:46:53;99459.78;;;20.28;71.08
36138;BME280;22194;50.046;21.954;2022-10-31T10:49:49;99461.23;;;20.28;70.77
36138;BME280;22194;50.046;21.954;2022-10-31T10:55:27;99457.67;;;20.34;70.72
36138;BME280;22194;50.046;21.954;2022-10-31T10:58:06;99457.64;;;20.38;70.48
36138;BME280;22194;50.046;21.954;2022-10-31T11:00:35;99454.93;;;20.41;70.45
36138;BME280;22194;50.046;21.954;2022-10-31T11:03:09;99453.48;;;20.36;70.25
36138;BME280;22194;50.046;21.954;2022-10-31T11:08:32;99453.39;;;20.25;69.84
36138;BME280;22194;50.046;21.954;2022-10-31T11:13:38;99450.70;;;20.29;69.74
36138;BME280;22194;50.046;21.954;2022-10-31T11:19:07;99447.38;;;20.31;69.22
36138;BME280;22194;50.046;21.954;2022-10-31T11:21:35;99446.48;;;20.37;69.19
36138;BME280;22194;50.046;21.954;2022-10-31T11:26:39;99443.80;;;20.47;69.12
36138;BME280;22194;50.046;21.954;2022-10-31T11:29:22;99439.12;;;20.51;68.72
36138;BME280;22194;50.046;21.954;2022-10-31T11:31:55;99440.78;;;20.52;68.38
36138;BME280;22194;50.046;21.954;2022-10-31T11:34:30;99440.77;;;20.52;68.51
36138;BME280;22194;50.046;21.954;2022-10-31T11:37:12;99443.95;;;20.53;68.23
36138;BME280;22194;50.046;21.954;2022-10-31T11:39:51;99442.94;;;20.54;68.22
36138;BME280;22194;50.046;21.954;2022-10-31T11:42:25;99442.23;;;20.57;68.23
36138;BME280;22194;50.046;21.954;2022-10-31T11:44:54;99444.16;;;20.61;68.22
36138;BME280;22194;50.046;21.954;2022-10-31T11:47:28;99439.77;;;20.66;68.23
36138;BME280;22194;50.046;21.954;2022-10-31T11:50:00;99441.39;;;20.68;67.99
36138;BME280;22194;50.046;21.954;2022-10-31T11:52:32;99437.69;;;20.71;67.79
36138;BME280;22194;50.046;21.954;2022-10-31T11:57:48;99437.27;;;20.80;67.74
36138;BME280;22194;50.046;21.954;2022-10-31T12:00:27;99437.73;;;20.82;67.32
36138;BME280;22194;50.046;21.954;2022-10-31T12:08:19;99432.39;;;20.88;66.93
36138;BME280;22194;50.046;21.954;2022-10-31T12:14:08;99435.41;;;20.90;66.99
36138;BME280;22194;50.046;21.954;2022-10-31T12:17:12;99432.51;;;20.89;66.79
36138;BME280;22194;50.046;21.954;2022-10-31T12:22:47;99433.98;;;20.86;66.59
36138;BME280;22194;50.046;21.954;2022-10-31T12:28:52;99431.70;;;20.88;66.35
36138;BME280;22194;50.046;21.954;2022-10-31T12:31:42;99433.98;;;20.90;66.31
36138;BME280;22194;50.046;21.954;2022-10-31T12:36:58;99430.38;;;20.89;65.99
36138;BME280;22194;50.046;21.954;2022-10-31T12:39:57;99432.64;;;20.88;65.95
36138;BME280;22194;50.046;21.954;2022-10-31T12:43:06;99434.97;;;20.88;65.98
36138;BME280;22194;50.046;21.954;2022-10-31T12:45:59;99429.46;;;20.89;65.82
36138;BME280;22194;50.046;21.954;2022-10-31T12:54:24;99424.39;;;20.86;65.42
36138;BME280;22194;50.046;21.954;2022-10-31T12:57:12;99428.35;;;20.82;65.11
36138;BME280;22194;50.046;21.954;2022-10-31T12:59:45;99421.05;;;20.77;64.99
36138;BME280;22194;50.046;21.954;2022-10-31T13:02:32;99417.42;;;20.75;65.17
36138;BME280;22194;50.046;21.954;2022-10-31T13:05:27;99418.63;;;20.75;64.98
36138;BME280;22194;50.046;21.954;2022-10-31T13:08:45;99418.67;;;20.77;65.20
36138;BME280;22194;50.046;21.954;2022-10-31T13:11:09;99418.05;;;20.74;64.73
36138;BME280;22194;50.046;21.954;2022-10-31T13:16:43;99415.67;;;20.71;64.91
36138;BME280;22194;50.046;21.954;2022-10-31T13:19:28;99416.08;;;20.69;64.53
36138;BME280;22194;50.046;21.954;2022-10-31T13:22:13;99411.39;;;20.61;64.42
36138;BME280;22194;50.046;21.954;2022-10-31T13:25:09;99413.48;;;20.55;64.19
36138;BME280;22194;50.046;21.954;2022-10-31T13:28:02;99414.27;;;20.54;64.31
36138;BME280;22194;50.046;21.954;2022-10-31T13:30:33;99409.73;;;20.54;64.13
36138;BME280;22194;50.046;21.954;2022-10-31T13:35:53;99402.14;;;20.50;64.21
36138;BME280;22194;50.046;21.954;2022-10-31T13:38:33;99404.29;;;20.50;64.10
36138;BME280;22194;50.046;21.954;2022-10-31T13:41:29;99404.16;;;20.49;64.01
36138;BME280;22194;50.046;21.954;2022-10-31T13:44:24;99406.86;;;20.48;63.77
36138;BME280;22194;50.046;21.954;2022-10-31T13:46:54;99404.26;;;20.47;63.89
36138;BME280;22194;50.046;21.954;2022-10-31T13:54:44;99407.80;;;20.42;63.70
36138;BME280;22194;50.046;21.954;2022-10-31T14:02:52;99412.89;;;20.29;63.55
36138;BME280;22194;50.046;21.954;2022-10-31T14:05:25;99415.02;;;20.22;63.49
36138;BME280;22194;50.046;21.954;2022-10-31T14:07:54;99417.05;;;20.20;63.43
36138;BME280;22194;50.046;21.954;2022-10-31T14:10:32;99413.80;;;20.17;63.38
36138;BME280;22194;50.046;21.954;2022-10-31T14:13:18;99415.59;;;20.12;63.41
36138;BME280;22194;50.046;21.954;2022-10-31T14:16:01;99415.83;;;20.04;63.36
36138;BME280;22194;50.046;21.954;2022-10-31T14:18:33;99414.03;;;19.99;63.19
36138;BME280;22194;50.046;21.954;2022-10-31T14:23:52;99417.28;;;19.92;63.42
36138;BME280;22194;50.046;21.954;2022-10-31T14:29:20;99413.33;;;19.85;63.16
36138;BME280;22194;50.046;21.954;2022-10-31T14:34:52;99413.23;;;19.71;63.03
36138;BME280;22194;50.046;21.954;2022-10-31T14:37:53;99410.64;;;19.64;62.90
36138;BME280;22194;50.046;21.954;2022-10-31T14:51:39;99408.17;;;19.22;62.83
36138;BME280;22194;50.046;21.954;2022-10-31T14:54:21;99406.39;;;19.13;62.69
36138;BME280;22194;50.046;21.954;2022-10-31T14:57:25;99404.90;;;19.05;62.61
36138;BME280;22194;50.046;21.954;2022-10-31T15:00:00;99406.02;;;18.94;62.70
36138;BME280;22194;50.046;21.954;2022-10-31T15:05:31;99408.80;;;18.71;62.60
36138;BME280;22194;50.046;21.954;2022-10-31T15:08:01;99411.04;;;18.62;62.53
36138;BME280;22194;50.046;21.954;2022-10-31T15:10:32;99410.48;;;18.51;62.63
36138;BME280;22194;50.046;21.954;2022-10-31T15:13:10;99409.09;;;18.40;62.59
36138;BME280;22194;50.046;21.954;2022-10-31T15:15:40;99417.08;;;18.28;62.53
36138;BME280;22194;50.046;21.954;2022-10-31T15:18:17;99413.95;;;18.16;62.51
36138;BME280;22194;50.046;21.954;2022-10-31T15:20:46;99413.97;;;18.05;62.35
36138;BME280;22194;50.046;21.954;2022-10-31T15:23:20;99412.69;;;17.93;62.49
36138;BME280;22194;50.046;21.954;2022-10-31T15:25:49;99421.94;;;17.83;62.55
36138;BME280;22194;50.046;21.954;2022-10-31T15:28:23;99423.08;;;17.73;62.46
36138;BME280;22194;50.046;21.954;2022-10-31T15:31:00;99424.61;;;17.63;62.43
36138;BME280;22194;50.046;21.954;2022-10-31T15:33:31;99426.43;;;17.53;62.47
36138;BME280;22194;50.046;21.954;2022-10-31T15:36:06;99424.95;;;17.43;62.43